createdAt,value
2023-04-14T00:00:04.274Z,17.40
2023-04-14T00:01:04.284Z,15.45
2023-04-14T00:02:04.366Z,16.66
2023-04-14T00:03:04.530Z,18.14
2023-04-14T00:04:04.623Z,17.70
2023-04-14T00:05:04.446Z,16.81
2023-04-14T00:06:04.442Z,17.48
2023-04-14T00:07:04.436Z,19.37
2023-04-14T00:08:04.438Z,17.99
2023-04-14T00:09:04.507Z,17.70
2023-04-14T00:10:04.547Z,20.08
2023-04-14T00:11:04.516Z,16.96
2023-04-14T00:12:04.532Z,18.86
2023-04-14T00:13:04.528Z,19.15
2023-04-14T00:14:04.523Z,19.15
2023-04-14T00:15:04.617Z,17.84
2023-04-14T00:16:04.618Z,18.86
2023-04-14T00:17:04.659Z,20.08
2023-04-14T00:18:04.745Z,18.14
2023-04-14T00:19:04.731Z,17.84
2023-04-14T00:20:04.740Z,17.70
2023-04-14T00:21:04.753Z,18.36
2023-04-14T00:22:04.765Z,16.81
2023-04-14T00:23:04.781Z,18.43
2023-04-14T00:24:04.757Z,17.25
2023-04-14T00:25:04.755Z,16.36
2023-04-14T00:26:04.746Z,18.36
2023-04-14T00:27:04.748Z,15.53
2023-04-14T00:28:04.760Z,17.70
2023-04-14T00:29:04.758Z,17.55
2023-04-14T00:30:04.815Z,17.55
2023-04-14T00:31:04.836Z,17.48
2023-04-14T00:32:04.799Z,18.36
2023-04-14T00:33:04.872Z,18.79
2023-04-14T00:34:04.844Z,17.40
2023-04-14T00:35:04.848Z,17.99
2023-04-14T00:36:04.836Z,16.81
2023-04-14T00:37:04.840Z,17.84
2023-04-14T00:38:04.818Z,17.77
2023-04-14T00:39:04.936Z,16.21
2023-04-14T00:40:04.934Z,14.76
2023-04-14T00:41:04.924Z,14.06
2023-04-14T00:42:04.917Z,12.78
2023-04-14T00:43:04.993Z,16.88
2023-04-14T00:44:05.006Z,17.11
2023-04-14T00:45:05.004Z,17.18
2023-04-14T00:46:05.047Z,18.14
2023-04-14T00:47:05.028Z,17.18
2023-04-14T00:48:05.035Z,17.40
2023-04-14T00:49:05.031Z,13.74
2023-04-14T00:50:05.001Z,15.45
2023-04-14T00:51:05.005Z,11.55
2023-04-14T00:52:05.020Z,16.28
2023-04-14T00:53:05.026Z,17.84
2023-04-14T00:54:05.016Z,18.43
2023-04-14T00:55:05.047Z,18.28
2023-04-14T00:56:05.036Z,17.99
2023-04-14T00:57:05.027Z,16.58
2023-04-14T00:58:05.114Z,15.60
2023-04-14T00:59:05.089Z,17.40
2023-04-14T01:00:05.100Z,15.14
2023-04-14T01:01:05.094Z,16.88
2023-04-14T01:02:05.170Z,16.88
2023-04-14T01:03:05.196Z,17.62
2023-04-14T01:04:05.164Z,15.76
2023-04-14T01:05:05.325Z,17.11
2023-04-14T01:06:05.203Z,15.76
2023-04-14T01:07:05.190Z,15.76
2023-04-14T01:08:05.220Z,16.51
2023-04-14T01:09:05.177Z,15.30
2023-04-14T01:10:05.172Z,16.21
2023-04-14T01:11:05.256Z,16.51
2023-04-14T01:12:05.278Z,16.21
2023-04-14T01:13:05.256Z,14.84
2023-04-14T01:14:05.255Z,15.30
2023-04-14T01:15:05.246Z,14.99
2023-04-14T01:16:05.342Z,15.68
2023-04-14T01:17:05.314Z,15.68
2023-04-14T01:18:05.337Z,16.06
2023-04-14T01:19:05.323Z,16.88
2023-04-14T01:20:05.329Z,16.06
2023-04-14T01:21:05.340Z,16.44
2023-04-14T01:22:05.324Z,15.30
2023-04-14T01:23:05.344Z,16.06
2023-04-14T01:24:05.341Z,16.96
2023-04-14T01:25:05.347Z,18.28
2023-04-14T01:26:05.345Z,18.21
2023-04-14T01:27:05.354Z,18.06
2023-04-14T01:28:05.369Z,18.93
2023-04-14T01:29:05.372Z,18.36
2023-04-14T01:30:05.394Z,19.01
2023-04-14T01:31:05.441Z,17.70
2023-04-14T01:32:05.443Z,17.84
2023-04-14T01:33:05.444Z,17.03
2023-04-14T01:34:05.451Z,16.13
2023-04-14T01:35:05.470Z,16.88
2023-04-14T01:36:05.475Z,17.92
2023-04-14T01:37:05.479Z,17.25
2023-04-14T01:38:05.486Z,18.36
2023-04-14T01:39:05.488Z,17.48
2023-04-14T01:40:05.510Z,19.44
2023-04-14T01:41:05.527Z,18.72
2023-04-14T01:42:05.523Z,17.99
2023-04-14T01:43:05.526Z,18.36
2023-04-14T01:44:05.521Z,17.62
2023-04-14T01:45:05.530Z,16.51
2023-04-14T01:46:05.625Z,18.43
2023-04-14T01:47:05.525Z,17.62
2023-04-14T01:48:05.562Z,19.22
2023-04-14T01:49:05.567Z,17.25
2023-04-14T01:50:05.557Z,19.29
2023-04-14T01:51:05.574Z,18.14
2023-04-14T01:52:05.586Z,18.93
2023-04-14T01:53:05.598Z,17.92
2023-04-14T01:54:05.610Z,19.01
2023-04-14T01:55:05.620Z,18.65
2023-04-14T01:56:05.640Z,17.25
2023-04-14T01:57:05.652Z,18.14
2023-04-14T01:58:05.663Z,19.51
2023-04-14T01:59:05.640Z,18.06
2023-04-14T02:00:05.655Z,17.48
2023-04-14T02:01:05.658Z,17.55
2023-04-14T02:02:05.707Z,18.86
2023-04-14T02:03:05.773Z,17.25
2023-04-14T02:04:05.740Z,18.65
2023-04-14T02:05:05.624Z,18.14
2023-04-14T02:06:05.650Z,17.92
2023-04-14T02:07:05.638Z,17.70
2023-04-14T02:08:05.642Z,18.43
2023-04-14T02:09:05.670Z,19.29
2023-04-14T02:10:05.656Z,18.72
2023-04-14T02:11:05.668Z,18.36
2023-04-14T02:12:05.670Z,17.84
2023-04-14T02:13:05.688Z,18.79
2023-04-14T02:14:05.694Z,19.15
2023-04-14T02:15:05.667Z,19.51
2023-04-14T02:16:05.743Z,19.58
2023-04-14T02:17:05.759Z,19.37
2023-04-14T02:18:05.744Z,18.79
2023-04-14T02:19:05.772Z,19.65
2023-04-14T02:20:05.749Z,19.44
2023-04-14T02:21:05.749Z,19.51
2023-04-14T02:22:05.772Z,19.15
2023-04-14T02:23:05.781Z,19.22
2023-04-14T02:24:05.796Z,18.28
2023-04-14T02:25:05.779Z,18.79
2023-04-14T02:26:05.785Z,19.51
2023-04-14T02:27:05.766Z,19.51
2023-04-14T02:28:05.864Z,19.51
2023-04-14T02:29:05.936Z,18.50
2023-04-14T02:30:05.965Z,19.08
2023-04-14T02:31:06.022Z,18.86
2023-04-14T02:32:06.009Z,18.79
2023-04-14T02:33:06.013Z,18.50
2023-04-14T02:34:06.084Z,18.50
2023-04-14T02:35:06.103Z,18.86
2023-04-14T02:36:06.095Z,19.01
2023-04-14T02:37:06.121Z,18.86
2023-04-14T02:38:06.115Z,19.01
2023-04-14T02:39:06.128Z,17.03
2023-04-14T02:40:06.141Z,18.21
2023-04-14T02:41:06.186Z,17.55
2023-04-14T02:42:06.196Z,17.92
2023-04-14T02:43:06.174Z,19.22
2023-04-14T02:44:06.246Z,19.37
2023-04-14T02:45:06.252Z,19.44
2023-04-14T02:46:06.295Z,20.15
2023-04-14T02:47:06.279Z,19.01
2023-04-14T02:48:06.304Z,18.14
2023-04-14T02:49:06.336Z,17.18
2023-04-14T02:50:06.300Z,19.29
2023-04-14T02:51:06.283Z,19.72
2023-04-14T02:52:06.284Z,20.72
2023-04-14T02:53:06.305Z,21.21
2023-04-14T02:54:06.312Z,21.64
2023-04-14T02:55:06.392Z,22.13
2023-04-14T02:56:06.390Z,20.29
2023-04-14T02:57:06.392Z,19.94
2023-04-14T02:58:06.382Z,21.71
2023-04-14T02:59:06.364Z,21.78
2023-04-14T03:00:06.366Z,22.06
2023-04-14T03:01:06.439Z,22.06
2023-04-14T03:02:06.519Z,21.99
2023-04-14T03:03:06.504Z,22.20
2023-04-14T03:04:06.429Z,21.99
2023-04-14T03:05:06.393Z,21.85
2023-04-14T03:06:06.415Z,22.34
2023-04-14T03:07:06.423Z,21.07
2023-04-14T03:08:06.420Z,21.78
2023-04-14T03:09:06.422Z,21.99
2023-04-14T03:10:06.448Z,21.00
2023-04-14T03:11:06.478Z,21.92
2023-04-14T03:12:06.455Z,21.64
2023-04-14T03:13:06.425Z,21.92
2023-04-14T03:14:06.504Z,21.14
2023-04-14T03:15:06.508Z,21.99
2023-04-14T03:16:06.514Z,21.64
2023-04-14T03:17:06.509Z,21.92
2023-04-14T03:18:06.533Z,21.78
2023-04-14T03:19:06.544Z,20.79
2023-04-14T03:20:06.560Z,20.65
2023-04-14T03:21:06.550Z,21.71
2023-04-14T03:22:06.527Z,22.62
2023-04-14T03:23:06.514Z,21.99
2023-04-14T03:24:06.521Z,22.76
2023-04-14T03:25:06.576Z,20.93
2023-04-14T03:26:06.564Z,21.71
2023-04-14T03:27:06.708Z,21.92
2023-04-14T03:28:06.674Z,21.28
2023-04-14T03:29:06.757Z,20.44
2023-04-14T03:30:06.816Z,21.14
2023-04-14T03:31:06.896Z,21.64
2023-04-14T03:32:06.996Z,21.28
2023-04-14T03:33:07.023Z,21.50
2023-04-14T03:34:06.997Z,21.50
2023-04-14T03:35:07.008Z,21.35
2023-04-14T03:36:06.996Z,21.00
2023-04-14T03:37:06.983Z,21.85
2023-04-14T03:38:07.064Z,20.51
2023-04-14T03:39:07.078Z,21.35
2023-04-14T03:40:07.074Z,20.58
2023-04-14T03:41:07.058Z,20.93
2023-04-14T03:42:07.056Z,21.99
2023-04-14T03:43:07.039Z,21.07
2023-04-14T03:44:07.120Z,21.35
2023-04-14T03:45:07.148Z,21.57
2023-04-14T03:46:07.401Z,21.43
2023-04-14T03:47:07.157Z,20.93
2023-04-14T03:48:07.165Z,21.71
2023-04-14T03:49:07.234Z,21.00
2023-04-14T03:50:07.332Z,21.57
2023-04-14T03:51:07.337Z,21.35
2023-04-14T03:52:07.323Z,21.00
2023-04-14T03:53:07.315Z,21.14
2023-04-14T03:54:07.326Z,21.57
2023-04-14T03:55:07.304Z,21.64
2023-04-14T03:56:07.393Z,21.64
2023-04-14T03:57:07.399Z,21.21
2023-04-14T03:58:07.391Z,21.00
2023-04-14T03:59:09.579Z,22.06
2023-04-14T04:00:07.506Z,21.00
2023-04-14T04:01:07.518Z,21.43
2023-04-14T04:02:07.597Z,20.79
2023-04-14T04:03:07.763Z,21.07
2023-04-14T04:04:07.733Z,21.07
2023-04-14T04:05:07.573Z,20.72
2023-04-14T04:06:07.625Z,20.86
2023-04-14T04:07:07.584Z,20.29
2023-04-14T04:08:07.589Z,21.50
2023-04-14T04:09:07.609Z,21.21
2023-04-14T04:10:07.619Z,21.21
2023-04-14T04:11:07.662Z,21.57
2023-04-14T04:12:07.677Z,21.07
2023-04-14T04:13:07.673Z,20.44
2023-04-14T04:14:07.696Z,20.93
2023-04-14T04:15:07.737Z,21.14
2023-04-14T04:16:07.772Z,20.86
2023-04-14T04:17:07.785Z,21.14
2023-04-14T04:18:07.815Z,20.93
2023-04-14T04:19:07.827Z,20.93
2023-04-14T04:20:07.898Z,21.21
2023-04-14T04:21:07.907Z,21.07
2023-04-14T04:22:07.950Z,21.00
2023-04-14T04:23:08.018Z,21.85
2023-04-14T04:24:08.010Z,20.51
2023-04-14T04:25:08.031Z,21.14
2023-04-14T04:26:08.028Z,21.00
2023-04-14T04:27:14.375Z,20.93
2023-04-14T04:28:08.042Z,21.00
2023-04-14T04:29:08.039Z,21.92
2023-04-14T04:30:08.063Z,21.64
2023-04-14T04:31:08.069Z,21.14
2023-04-14T04:32:08.144Z,21.14
2023-04-14T04:33:08.116Z,21.07
2023-04-14T04:34:08.149Z,21.21
2023-04-14T04:35:08.228Z,20.65
2023-04-14T04:36:08.203Z,21.00
2023-04-14T04:37:08.254Z,21.21
2023-04-14T04:38:08.296Z,21.28
2023-04-14T04:39:08.301Z,21.78
2023-04-14T04:40:08.340Z,21.43
2023-04-14T04:41:08.341Z,21.07
2023-04-14T04:42:08.371Z,20.72
2023-04-14T04:43:08.418Z,20.15
2023-04-14T04:44:08.463Z,21.21
2023-04-14T04:45:08.505Z,20.93
2023-04-14T04:46:08.558Z,21.78
2023-04-14T04:47:08.550Z,21.43
2023-04-14T04:48:08.644Z,21.14
2023-04-14T04:49:08.674Z,20.86
2023-04-14T04:50:08.664Z,20.15
2023-04-14T04:51:08.716Z,20.93
2023-04-14T04:52:08.743Z,20.08
2023-04-14T04:53:08.782Z,22.20
2023-04-14T04:54:08.853Z,21.07
2023-04-14T04:55:08.863Z,21.28
2023-04-14T04:56:08.908Z,21.28
2023-04-14T04:57:08.961Z,21.71
2023-04-14T04:58:09.022Z,22.20
2023-04-14T04:59:09.074Z,21.78
2023-04-14T05:00:09.109Z,21.07
2023-04-14T05:01:09.219Z,20.79
2023-04-14T05:02:09.207Z,20.51
2023-04-14T05:03:09.277Z,21.50
2023-04-14T05:04:09.354Z,21.57
2023-04-14T05:05:09.261Z,20.79
2023-04-14T05:06:09.314Z,21.07
2023-04-14T05:07:09.369Z,21.14
2023-04-14T05:08:09.387Z,21.07
2023-04-14T05:09:09.381Z,21.57
2023-04-14T05:10:09.384Z,21.00
2023-04-14T05:11:09.372Z,21.78
2023-04-14T05:12:09.397Z,21.43
2023-04-14T05:13:09.382Z,20.65
2023-04-14T05:14:09.398Z,21.00
2023-04-14T05:15:09.475Z,21.71
2023-04-14T05:16:09.579Z,21.64
2023-04-14T05:17:09.563Z,21.28
2023-04-14T05:18:09.574Z,21.99
2023-04-14T05:19:09.580Z,21.92
2023-04-14T05:20:09.605Z,21.28
2023-04-14T05:21:09.606Z,21.78
2023-04-14T05:22:09.627Z,21.64
2023-04-14T05:23:09.629Z,21.64
2023-04-14T05:24:09.636Z,21.64
2023-04-14T05:25:09.665Z,21.99
2023-04-14T05:26:31.140Z,22.20
2023-04-14T05:27:13.646Z,21.71
2023-04-14T05:28:09.691Z,21.99
2023-04-14T05:29:09.724Z,20.58
2023-04-14T05:30:09.775Z,21.50
2023-04-14T05:31:09.847Z,21.07
2023-04-14T05:32:09.809Z,20.15
2023-04-14T05:33:09.882Z,20.65
2023-04-14T05:34:09.845Z,20.65
2023-04-14T05:35:09.912Z,19.22
2023-04-14T05:36:09.891Z,20.79
2023-04-14T05:37:09.960Z,18.93
2023-04-14T05:38:09.961Z,6.99
2023-04-14T05:39:10.055Z,6.14
2023-04-14T05:40:10.102Z,7.36
2023-04-14T05:41:10.110Z,8.45
2023-04-14T05:42:10.116Z,11.88
2023-04-14T05:43:10.150Z,16.21
2023-04-14T05:44:10.216Z,16.13
2023-04-14T05:45:10.221Z,16.58
2023-04-14T05:46:10.301Z,19.51
2023-04-14T05:47:10.284Z,19.08
2023-04-14T05:48:10.378Z,22.69
2023-04-14T05:49:10.326Z,13.18
2023-04-14T05:50:10.398Z,22.06
2023-04-14T05:51:10.457Z,5.67
2023-04-14T05:52:10.477Z,0.00
2023-04-14T05:53:10.490Z,0.00
2023-04-14T05:54:10.479Z,0.00
2023-04-14T05:55:10.494Z,0.00
2023-04-14T05:56:10.491Z,4.50
2023-04-14T05:57:10.561Z,8.00
2023-04-14T05:58:10.610Z,0.00
2023-04-14T05:59:10.667Z,10.79
2023-04-14T06:00:10.680Z,5.38
2023-04-14T06:01:10.695Z,13.74
2023-04-14T06:02:10.796Z,14.52
2023-04-14T06:03:11.019Z,16.28
2023-04-14T06:04:11.022Z,5.28
2023-04-14T06:05:11.002Z,14.60
2023-04-14T06:06:10.801Z,7.36
2023-04-14T06:07:10.844Z,6.52
2023-04-14T06:08:10.913Z,5.09
2023-04-14T06:09:10.889Z,6.43
2023-04-14T06:10:10.950Z,6.24
2023-04-14T06:11:10.986Z,3.71
2023-04-14T06:12:11.038Z,3.71
2023-04-14T06:13:11.100Z,2.38
2023-04-14T06:14:11.159Z,3.30
2023-04-14T06:15:11.198Z,5.19
2023-04-14T06:16:11.287Z,2.48
2023-04-14T06:17:11.245Z,2.79
2023-04-14T06:18:11.303Z,5.48
2023-04-14T06:19:11.371Z,6.14
2023-04-14T06:20:11.390Z,3.51
2023-04-14T06:21:11.445Z,2.90
2023-04-14T06:22:11.492Z,2.69
2023-04-14T06:23:11.529Z,4.50
2023-04-14T06:24:11.569Z,2.59
2023-04-14T06:25:11.627Z,8.36
2023-04-14T06:26:11.683Z,4.50
2023-04-14T06:27:11.741Z,2.28
2023-04-14T06:28:11.793Z,2.48
2023-04-14T06:29:11.847Z,1.96
2023-04-14T06:30:11.873Z,3.51
2023-04-14T06:31:11.912Z,4.01
2023-04-14T06:32:12.019Z,5.28
2023-04-14T06:33:11.952Z,7.36
2023-04-14T06:34:12.005Z,2.90
2023-04-14T06:35:18.992Z,3.51
2023-04-14T06:36:12.076Z,2.59
2023-04-14T06:37:12.126Z,1.54
2023-04-14T06:38:12.166Z,8.45
2023-04-14T06:39:12.219Z,6.80
2023-04-14T06:40:12.191Z,6.61
2023-04-14T06:41:12.248Z,5.38
2023-04-14T06:42:12.290Z,5.57
2023-04-14T06:43:12.344Z,2.79
2023-04-14T06:44:12.412Z,3.30
2023-04-14T06:45:12.461Z,3.10
2023-04-14T06:46:12.574Z,3.91
2023-04-14T06:47:12.518Z,1.86
2023-04-14T06:48:12.587Z,2.38
2023-04-14T06:49:12.651Z,1.44
2023-04-14T06:50:12.721Z,2.79
2023-04-14T06:51:12.708Z,5.95
2023-04-14T06:52:12.732Z,11.22
2023-04-14T06:53:12.717Z,12.62
2023-04-14T06:54:12.773Z,13.58
2023-04-14T06:55:12.782Z,13.90
2023-04-14T06:56:12.782Z,1.22
2023-04-14T06:57:12.815Z,0.90
2023-04-14T06:58:12.969Z,1.44
2023-04-14T06:59:12.979Z,0.69
2023-04-14T07:00:12.948Z,0.47
2023-04-14T07:01:13.002Z,4.01
2023-04-14T07:02:13.014Z,14.45
2023-04-14T07:03:13.059Z,12.37
2023-04-14T07:04:13.099Z,11.96
2023-04-14T07:05:13.259Z,12.05
2023-04-14T07:06:13.096Z,5.95
2023-04-14T07:07:13.150Z,6.33
2023-04-14T07:08:13.213Z,5.48
2023-04-14T07:09:13.282Z,4.40
2023-04-14T07:10:13.334Z,4.30
2023-04-14T07:11:13.403Z,3.40
2023-04-14T07:12:13.450Z,5.57
2023-04-14T07:13:13.513Z,3.71
2023-04-14T07:14:13.564Z,3.00
2023-04-14T07:15:13.622Z,4.70
2023-04-14T07:16:13.700Z,3.10
2023-04-14T07:17:13.636Z,3.61
2023-04-14T07:18:13.754Z,2.48
2023-04-14T07:19:13.705Z,1.96
2023-04-14T07:20:13.764Z,2.07
2023-04-14T07:21:13.832Z,4.11
2023-04-14T07:22:13.898Z,2.28
2023-04-14T07:23:13.940Z,2.90
2023-04-14T07:24:15.601Z,2.59
2023-04-14T07:25:14.038Z,2.79
2023-04-14T07:26:14.101Z,2.38
2023-04-14T07:27:14.178Z,2.48
2023-04-14T07:28:14.235Z,2.38
2023-04-14T07:29:14.289Z,2.38
2023-04-14T07:30:14.302Z,2.17
2023-04-14T07:31:14.369Z,2.48
2023-04-14T07:32:14.422Z,2.17
2023-04-14T07:33:14.498Z,2.17
2023-04-14T07:34:14.538Z,1.86
2023-04-14T07:35:14.556Z,1.75
2023-04-14T07:36:14.599Z,1.65
2023-04-14T07:37:14.648Z,2.38
2023-04-14T07:38:14.695Z,2.38
2023-04-14T07:39:14.735Z,1.96
2023-04-14T07:40:14.796Z,2.38
2023-04-14T07:41:14.832Z,2.69
2023-04-14T07:42:14.908Z,4.21
2023-04-14T07:43:14.875Z,4.40
2023-04-14T07:44:14.928Z,5.09
2023-04-14T07:45:14.973Z,4.21
2023-04-14T07:46:15.063Z,5.48
2023-04-14T07:47:15.047Z,0.00
2023-04-14T07:48:15.109Z,0.00
2023-04-14T07:49:15.123Z,0.00
2023-04-14T07:50:15.457Z,0.00
2023-04-14T07:51:15.197Z,0.00
2023-04-14T07:52:15.194Z,0.00
2023-04-14T07:53:15.198Z,0.00
2023-04-14T07:54:15.205Z,0.00
2023-04-14T07:55:15.205Z,0.00
2023-04-14T07:56:15.212Z,1.33
2023-04-14T07:57:15.232Z,16.51
2023-04-14T07:58:15.772Z,11.88
2023-04-14T07:59:15.303Z,15.14
2023-04-14T08:00:15.327Z,12.54
2023-04-14T08:01:15.333Z,10.20
2023-04-14T08:02:15.411Z,11.80
2023-04-14T08:03:15.529Z,10.63
2023-04-14T08:04:15.538Z,10.71
2023-04-14T08:05:15.428Z,10.37
2023-04-14T08:06:15.398Z,11.55
2023-04-14T08:07:15.402Z,11.63
2023-04-14T08:08:15.456Z,10.88
2023-04-14T08:09:15.449Z,11.38
2023-04-14T08:10:15.522Z,10.54
2023-04-14T08:11:15.524Z,10.20
2023-04-14T08:12:15.544Z,11.30
2023-04-14T08:13:15.553Z,9.42
2023-04-14T08:14:15.615Z,9.51
2023-04-14T08:15:15.600Z,9.51
2023-04-14T08:16:15.697Z,9.24
2023-04-14T08:17:15.736Z,10.03
2023-04-14T08:18:15.724Z,9.59
2023-04-14T08:19:15.736Z,9.68
2023-04-14T08:20:15.712Z,9.85
2023-04-14T08:21:15.753Z,10.20
2023-04-14T08:22:15.788Z,9.42
2023-04-14T08:23:15.808Z,9.07
2023-04-14T08:24:15.846Z,8.80
2023-04-14T08:25:15.840Z,9.07
2023-04-14T08:26:15.919Z,9.59
2023-04-14T08:27:15.971Z,9.42
2023-04-14T08:28:15.928Z,9.85
2023-04-14T08:29:15.925Z,9.59
2023-04-14T08:30:15.990Z,9.59
2023-04-14T08:31:16.080Z,9.42
2023-04-14T08:32:16.153Z,8.18
2023-04-14T08:33:16.147Z,9.07
2023-04-14T08:34:16.769Z,12.54
2023-04-14T08:35:37.344Z,12.29
2023-04-14T08:36:16.174Z,13.66
2023-04-14T08:37:16.196Z,13.74
2023-04-14T08:38:16.220Z,12.29
2023-04-14T08:39:16.228Z,12.45
2023-04-14T08:40:16.235Z,15.83
2023-04-14T08:41:16.246Z,13.66
2023-04-14T08:42:16.272Z,12.94
2023-04-14T08:43:16.289Z,12.70
2023-04-14T08:44:16.323Z,12.21
2023-04-14T08:45:16.329Z,11.96
2023-04-14T08:46:16.782Z,11.05
2023-04-14T08:47:16.374Z,13.10
2023-04-14T08:48:16.395Z,11.55
2023-04-14T08:49:16.416Z,12.05
2023-04-14T08:50:16.452Z,13.18
2023-04-14T08:51:16.511Z,9.94
2023-04-14T08:52:16.511Z,11.72
2023-04-14T08:53:16.515Z,9.59
2023-04-14T08:54:16.586Z,8.53
2023-04-14T08:55:16.576Z,9.33
2023-04-14T08:56:16.581Z,9.51
2023-04-14T08:57:16.580Z,9.42
2023-04-14T08:58:16.601Z,8.36
2023-04-14T08:59:16.623Z,10.20
2023-04-14T09:00:16.617Z,9.42
2023-04-14T09:01:16.772Z,10.20
2023-04-14T09:02:16.655Z,10.45
2023-04-14T09:03:16.827Z,10.28
2023-04-14T09:04:16.883Z,9.42
2023-04-14T09:05:16.659Z,10.20
2023-04-14T09:06:16.698Z,9.59
2023-04-14T09:07:16.779Z,8.80
2023-04-14T09:08:16.774Z,9.16
2023-04-14T09:09:16.831Z,10.11
2023-04-14T09:10:16.866Z,9.24
2023-04-14T09:11:16.870Z,8.98
2023-04-14T09:12:16.875Z,10.88
2023-04-14T09:13:16.887Z,8.62
2023-04-14T09:14:16.939Z,10.63
2023-04-14T09:15:16.935Z,8.98
2023-04-14T09:16:16.957Z,10.20
2023-04-14T09:17:17.158Z,9.42
2023-04-14T09:18:16.993Z,11.13
2023-04-14T09:19:17.036Z,10.28
2023-04-14T09:20:35.528Z,9.59
2023-04-14T09:21:30.464Z,10.03
2023-04-14T09:22:17.165Z,11.22
2023-04-14T09:23:17.144Z,9.85
2023-04-14T09:24:17.141Z,9.51
2023-04-14T09:25:17.158Z,10.20
2023-04-14T09:26:17.194Z,8.98
2023-04-14T09:27:17.214Z,10.37
2023-04-14T09:28:17.184Z,9.33
2023-04-14T09:29:17.229Z,10.37
2023-04-14T09:30:17.285Z,11.22
2023-04-14T09:31:17.376Z,9.68
2023-04-14T09:32:17.331Z,10.03
2023-04-14T09:33:17.431Z,10.88
2023-04-14T09:34:17.390Z,10.28
2023-04-14T09:35:17.374Z,11.96
2023-04-14T09:36:17.411Z,10.79
2023-04-14T09:37:17.490Z,1.44
2023-04-14T09:38:17.519Z,0.00
2023-04-14T09:39:17.505Z,0.00
2023-04-14T09:40:17.506Z,0.00
2023-04-14T09:41:17.530Z,0.00
2023-04-14T09:42:17.542Z,0.00
2023-04-14T09:43:17.560Z,0.00
2023-04-14T09:44:17.547Z,0.00
2023-04-14T09:45:17.565Z,0.00
2023-04-14T09:46:17.620Z,0.00
2023-04-14T09:47:17.627Z,0.00
2023-04-14T09:48:17.650Z,0.00
2023-04-14T09:49:17.671Z,0.00
2023-04-14T09:50:17.682Z,0.00
2023-04-14T09:51:17.688Z,0.00
2023-04-14T09:52:17.735Z,0.00
2023-04-14T09:53:17.736Z,2.17
2023-04-14T09:54:17.776Z,0.00
2023-04-14T09:55:17.830Z,0.47
2023-04-14T09:56:17.835Z,0.00
2023-04-14T09:57:17.907Z,0.00
2023-04-14T09:58:17.917Z,0.00
2023-04-14T09:59:17.925Z,0.00
2023-04-14T10:00:17.941Z,0.00
2023-04-14T10:01:17.967Z,0.00
2023-04-14T10:02:18.241Z,1.12
2023-04-14T10:03:18.170Z,0.00
2023-04-14T10:04:18.102Z,0.00
2023-04-14T10:05:18.173Z,0.00
2023-04-14T10:06:18.154Z,0.00
2023-04-14T10:07:18.187Z,0.00
2023-04-14T10:08:18.234Z,0.00
2023-04-14T10:09:18.282Z,0.00
2023-04-14T10:10:18.302Z,4.40
2023-04-14T10:11:18.333Z,2.28
2023-04-14T10:12:18.357Z,0.90
2023-04-14T10:13:18.371Z,3.71
2023-04-14T10:14:18.428Z,3.00
2023-04-14T10:15:18.431Z,1.75
2023-04-14T10:16:18.544Z,1.96
2023-04-14T10:17:18.508Z,3.61
2023-04-14T10:18:18.729Z,1.54
2023-04-14T10:19:18.532Z,1.54
2023-04-14T10:20:18.585Z,2.07
2023-04-14T10:21:18.597Z,1.54
2023-04-14T10:22:18.629Z,1.65
2023-04-14T10:23:18.673Z,1.33
2023-04-14T10:24:18.657Z,1.12
2023-04-14T10:25:18.677Z,0.00
2023-04-14T10:26:18.668Z,0.00
2023-04-14T10:27:18.665Z,0.00
2023-04-14T10:28:18.739Z,0.00
2023-04-14T10:29:18.748Z,0.00
2023-04-14T10:30:18.861Z,0.00
2023-04-14T10:31:18.830Z,0.00
2023-04-14T10:32:18.948Z,0.00
2023-04-14T10:33:18.909Z,0.00
2023-04-14T10:34:18.878Z,0.00
2023-04-14T10:35:18.873Z,0.90
2023-04-14T10:36:18.866Z,0.00
2023-04-14T10:37:18.926Z,0.00
2023-04-14T10:38:18.975Z,1.12
2023-04-14T10:39:18.971Z,0.00
2023-04-14T10:40:19.145Z,0.00
2023-04-14T10:41:19.066Z,1.12
2023-04-14T10:42:19.079Z,0.00
2023-04-14T10:43:19.089Z,0.00
2023-04-14T10:44:19.121Z,0.69
2023-04-14T10:45:19.179Z,2.79
2023-04-14T10:46:19.287Z,0.00
2023-04-14T10:47:19.315Z,0.00
2023-04-14T10:48:19.387Z,0.90
2023-04-14T10:49:19.421Z,0.00
2023-04-14T10:50:19.567Z,0.47
2023-04-14T10:51:19.523Z,0.00
2023-04-14T10:52:19.506Z,0.00
2023-04-14T10:53:19.488Z,0.00
2023-04-14T10:54:19.549Z,0.00
2023-04-14T10:55:19.635Z,0.47
2023-04-14T10:56:19.630Z,0.00
2023-04-14T10:57:19.674Z,0.00
2023-04-14T10:58:19.724Z,0.00
2023-04-14T10:59:19.779Z,0.00
2023-04-14T11:00:19.840Z,0.00
2023-04-14T11:01:19.886Z,0.00
2023-04-14T11:02:19.948Z,0.00
2023-04-14T11:03:19.951Z,0.90
2023-04-14T11:04:20.030Z,0.00
2023-04-14T11:05:19.924Z,0.00
2023-04-14T11:06:19.914Z,0.00
2023-04-14T11:07:19.929Z,1.01
2023-04-14T11:08:19.970Z,0.58
2023-04-14T11:09:20.030Z,0.00
2023-04-14T11:10:20.113Z,0.00
2023-04-14T11:11:20.130Z,0.00
2023-04-14T11:12:20.194Z,0.00
2023-04-14T11:13:20.192Z,0.00
2023-04-14T11:14:20.238Z,0.00
2023-04-14T11:15:20.316Z,0.00
2023-04-14T11:16:20.385Z,0.00
2023-04-14T11:17:20.490Z,0.00
2023-04-14T11:18:20.468Z,0.00
2023-04-14T11:19:20.500Z,0.00
2023-04-14T11:20:20.528Z,0.00
2023-04-14T11:21:20.648Z,0.00
2023-04-14T11:22:20.611Z,0.00
2023-04-14T11:23:20.686Z,0.00
2023-04-14T11:24:20.665Z,0.00
2023-04-14T11:25:23.669Z,0.00
2023-04-14T11:26:20.710Z,0.00
2023-04-14T11:27:20.688Z,0.00
2023-04-14T11:28:20.759Z,0.00
2023-04-14T11:29:20.801Z,0.00
2023-04-14T11:30:20.961Z,0.00
2023-04-14T11:31:22.515Z,0.00
2023-04-14T11:32:21.003Z,0.00
2023-04-14T11:33:20.925Z,0.00
2023-04-14T11:34:20.950Z,1.01
2023-04-14T11:35:21.011Z,0.00
2023-04-14T11:36:21.828Z,0.00
2023-04-14T11:37:22.688Z,0.69
2023-04-14T11:38:21.118Z,0.00
2023-04-14T11:39:21.191Z,0.00
2023-04-14T11:40:21.234Z,1.96
2023-04-14T11:41:21.302Z,0.00
2023-04-14T11:42:21.352Z,0.00
2023-04-14T11:43:22.855Z,1.12
2023-04-14T11:44:21.387Z,0.00
2023-04-14T11:45:21.432Z,0.00
2023-04-14T11:46:21.511Z,0.00
2023-04-14T11:47:21.647Z,0.00
2023-04-14T11:48:21.626Z,0.00
2023-04-14T11:49:22.295Z,0.00
2023-04-14T11:50:21.695Z,0.00
2023-04-14T11:51:21.780Z,0.00
2023-04-14T11:52:21.777Z,0.00
2023-04-14T11:53:21.827Z,0.00
2023-04-14T11:54:21.905Z,0.00
2023-04-14T11:55:21.931Z,0.00
2023-04-14T11:56:21.938Z,0.00
2023-04-14T11:57:21.989Z,0.00
2023-04-14T11:58:22.006Z,0.00
2023-04-14T11:59:22.042Z,0.00
2023-04-14T12:00:22.093Z,0.00
2023-04-14T12:01:22.244Z,0.00
2023-04-14T12:02:22.359Z,0.00
2023-04-14T12:03:22.373Z,0.00
2023-04-14T12:04:22.447Z,0.00
2023-04-14T12:05:22.420Z,0.00
2023-04-14T12:06:22.352Z,1.01
2023-04-14T12:07:22.393Z,3.30
2023-04-14T12:08:22.409Z,4.99
2023-04-14T12:09:22.455Z,4.11
2023-04-14T12:10:22.475Z,3.91
2023-04-14T12:11:22.479Z,0.00
2023-04-14T12:12:22.475Z,0.00
2023-04-14T12:13:22.525Z,0.00
2023-04-14T12:14:22.543Z,0.00
2023-04-14T12:15:22.597Z,0.00
2023-04-14T12:16:22.705Z,0.00
2023-04-14T12:17:22.723Z,0.00
2023-04-14T12:18:23.167Z,0.00
2023-04-14T12:22:14.632Z,0.00
2023-04-14T12:26:06.571Z,0.00
2023-04-14T12:27:06.644Z,0.00
2023-04-14T12:28:06.757Z,0.00
2023-04-14T12:29:06.716Z,0.00
2023-04-14T12:30:06.771Z,0.00
2023-04-14T12:31:06.763Z,0.00
2023-04-14T12:32:06.730Z,0.00
2023-04-14T12:33:06.698Z,0.00
2023-04-14T12:34:06.756Z,0.00
2023-04-14T12:35:06.793Z,0.00
2023-04-14T12:36:06.872Z,0.00
2023-04-14T12:37:06.924Z,1.96
2023-04-14T12:38:06.960Z,0.00
2023-04-14T12:39:07.032Z,0.00
2023-04-14T12:40:07.112Z,0.00
2023-04-14T12:41:07.140Z,1.12
2023-04-14T12:42:07.147Z,0.00
2023-04-14T12:43:07.247Z,0.00
2023-04-14T12:44:07.252Z,0.00
2023-04-14T12:45:07.335Z,0.00
2023-04-14T12:46:07.332Z,0.00
2023-04-14T12:47:07.347Z,0.00
2023-04-14T12:48:07.364Z,0.00
2023-04-14T12:49:07.334Z,0.00
2023-04-14T12:50:07.414Z,1.75
2023-04-14T12:51:07.464Z,0.00
2023-04-14T12:52:07.440Z,0.00
2023-04-14T12:53:07.474Z,0.00
2023-04-14T12:54:07.549Z,0.00
2023-04-14T12:55:07.527Z,0.00
2023-04-14T12:56:07.611Z,0.00
2023-04-14T12:57:07.589Z,0.00
2023-04-14T12:58:07.641Z,0.00
2023-04-14T12:59:07.722Z,0.00
2023-04-14T13:00:07.710Z,0.00
2023-04-14T13:01:07.946Z,0.00
2023-04-14T13:02:07.839Z,0.00
2023-04-14T13:03:08.013Z,0.00
2023-04-14T13:04:07.976Z,0.00
2023-04-14T13:05:07.910Z,0.00
2023-04-14T13:06:07.976Z,0.00
2023-04-14T13:07:07.891Z,0.47
2023-04-14T13:08:07.943Z,0.00
2023-04-14T13:09:07.990Z,0.00
2023-04-14T13:10:07.999Z,0.00